• Join FlightAware (Why Join?)
  • Login
  • US Flag 
07:10AM EDT


 

Airport Tracker/Info


-or-


 

Live Flight TrackerFlight Track Log ✈ UAL4401 ✈ 18-Apr-2013 ✈ KIAH - KIAD

Flight Track Log - Related Links

Times and Time Zones

All times are in EDT time to prevent confusion due to time zone crossing. See the UAL4401 flight status page for this flight to view local times or setup timezone preferences in your user account.

Time Position Orientation Groundspeed Altitude Reporting Facility
EDT Latitude Longitude Course Direction KTS MPH feet Rate Location/Type
10:20PM 29.9756 -95.3347 252° West 153 176 600  Level Houston Center
10:21PM 29.9681 -95.3619 252° West 174 200 1,600 1,860 Climbing Houston Center
10:22PM 29.9078 -95.3283 154° Southeast 266 306 3,700 1,260 Climbing Houston Center
10:23PM 29.8667 -95.2467 120° Southeast 282 325 4,200 900 Climbing Houston Center
10:24PM 29.8342 -95.1636 114° Southeast 282 325 5,700 2,040 Climbing Houston Center
10:25PM 29.8294 -95.0694 93° East 292 336 8,500 2,340 Climbing Houston Center
10:26PM 29.8344 -94.9700 87° East 303 349 10,500 1,320 Climbing Houston Center
10:27PM 29.8400 -94.8514 87° East 360 414 11,300 1,260 Climbing Houston Center
10:28PM 29.8456 -94.7275 87° East 387 445 13,100 1,440 Climbing Houston Center
10:29PM 29.8503 -94.5986 88° East 399 459 14,300 1,200 Climbing Houston Center
10:30PM 29.8553 -94.4639 88° East 417 480 15,600 1,320 Climbing Houston Center
10:31PM 29.8606 -94.3289 87° East 423 487 17,100 1,560 Climbing Houston Center
10:32PM 29.8572 -94.1658 91° East 424 488 18,900 1,560 Climbing Houston Center
10:33PM 29.8569 -94.0250 90° East 434 499 20,400 1,560 Climbing Houston Center
10:34PM 29.8664 -93.8911 85° East 435 501 22,200 1,560 Climbing Houston Center
10:35PM 29.8828 -93.7542 82° East 433 498 23,600 1,320 Climbing Houston Center
10:36PM 29.8961 -93.6158 84° East 433 498 25,000 1,260 Climbing Houston Center
10:37PM 29.9117 -93.4761 83° East 439 505 26,200 1,020 Climbing Houston Center
10:38PM 29.9267 -93.3325 83° East 449 517 27,200 1,260 Climbing Houston Center
10:39PM 29.9442 -93.1764 83° East 453 521 28,800 1,500 Climbing Houston Center
10:40PM 29.9578 -93.0347 84° East 449 517 30,300 1,140 Climbing Houston Center
10:41PM 29.9719 -92.8886 84° East 454 522 31,200 960 Climbing Houston Center
10:42PM 29.9836 -92.7400 85° East 464 534 32,300 1,320 Climbing Houston Center
10:43PM 29.9981 -92.5589 85° East 473 544 34,000 1,260 Climbing Houston Center
10:44PM 30.0097 -92.4131 85° East 462 532 35,000 480 Climbing Houston Center
10:45PM 30.0219 -92.2631 85° East 469 540 35,000  Level Houston Center
10:46PM 30.0336 -92.1025 85° East 502 578 35,000  Level Houston Center
10:47PM 30.0458 -91.9364 85° East 520 598 35,000  Level Houston Center
10:48PM 30.0592 -91.7633 85° East 539 620 35,000  Level Houston Center
10:49PM 30.0742 -91.5714 85° East 546 628 35,000  Level Houston Center
10:50PM 30.0867 -91.4008 85° East 536 617 35,000  Level Houston Center
10:51PM 30.0981 -91.2319 86° East 530 610 35,000  Level Houston Center
10:52PM 30.1353 -91.0689 75° East 528 608 35,000  Level Houston Center
10:53PM 30.1903 -90.9122 68° East 530 610 35,000  Level Houston Center
10:54PM 30.2461 -90.7556 68° East 526 605 35,000  Level Houston Center
10:55PM 30.3011 -90.5992 68° East 525 604 35,000  Level Houston Center
10:56PM 30.3539 -90.4439 68° East 520 598 35,000  Level Houston Center
10:57PM 30.4331 -90.2625 63° Northeast 522 601 35,000  Level Houston Center
10:58PM 30.5042 -90.1153 61° Northeast 520 598 35,000  Level Houston Center
11:00PM 30.5758 -89.9672 61° Northeast 520 598 35,000  Level Houston Center
11:01PM 30.6456 -89.8181 61° Northeast 518 596 35,000  Level Houston Center
11:02PM 30.7161 -89.6694 61° Northeast 519 597 35,000  Level Houston Center
11:03PM 30.7853 -89.5208 62° Northeast 519 597 35,000  Level Houston Center
11:04PM 30.8522 -89.3739 62° Northeast 516 594 35,000  Level Houston Center
11:05PM 30.9214 -89.2267 61° Northeast 517 595 35,000  Level Houston Center
11:06PM 30.9886 -89.0794 62° Northeast 514 592 35,000  Level Houston Center
11:07PM 31.0619 -88.9228 61° Northeast 516 594 35,000  Level Houston Center
11:08PM 31.1297 -88.7753 62° Northeast 514 592 35,000  Level Houston Center
11:09PM 31.1981 -88.6272 62° Northeast 515 593 35,000  Level Houston Center
11:10PM 31.2667 -88.4794 61° Northeast 512 589 35,000  Level Houston Center
11:11PM 31.3247 -88.3558 61° Northeast 512 589 35,000  Level Atlanta Center
11:12PM 31.3925 -88.2081 62° Northeast 507 583 35,000  Level Atlanta Center
11:13PM 31.4578 -88.0603 63° Northeast 507 583 35,000  Level Atlanta Center
11:14PM 31.5253 -87.9147 61° Northeast 507 583 35,000  Level Atlanta Center
11:15PM 31.5922 -87.7664 62° Northeast 507 583 35,000  Level Atlanta Center
11:16PM 31.6550 -87.6228 63° Northeast 502 578 35,000  Level Atlanta Center
11:17PM 31.7194 -87.4836 61° Northeast 497 572 35,000  Level Atlanta Center
11:18PM 31.7864 -87.3225 64° Northeast 492 566 35,000  Level Atlanta Center
11:19PM 31.8508 -87.1758 63° Northeast 492 566 35,000  Level Atlanta Center
11:20PM 31.9128 -87.0311 63° Northeast 492 566 35,000  Level Atlanta Center
11:21PM 31.9789 -86.8814 62° Northeast 497 572 35,000  Level Atlanta Center
11:22PM 32.0428 -86.7364 63° Northeast 497 572 35,000  Level Atlanta Center
11:23PM 32.1061 -86.6083 60° Northeast 492 566 35,000  Level Atlanta Center
11:24PM 32.1675 -86.4606 64° Northeast 492 566 35,000  Level Atlanta Center
11:25PM 32.2242 -86.3344 62° Northeast 486 559 35,000  Level Atlanta Center
11:26PM 32.3103 -86.1867 55° Northeast 491 565 35,000  Level Atlanta Center
11:27PM 32.3958 -86.0608 51° Northeast 491 565 35,000  Level Atlanta Center
11:28PM 32.4856 -85.9325 50° Northeast 491 565 35,000  Level Atlanta Center
11:29PM 32.5711 -85.8036 52° Northeast 496 571 35,000 300 Level Atlanta Center
11:30PM 32.6500 -85.6819 52° Northeast 482 555 35,600 480 Climbing Atlanta Center
11:31PM 32.7328 -85.5625 50° Northeast 469 540 36,000 180 Climbing Atlanta Center
11:32PM 32.8136 -85.4403 52° Northeast 469 540 36,000  Level Atlanta Center
11:33PM 32.8986 -85.3131 51° Northeast 475 547 36,000  Level Atlanta Center
11:34PM 32.9811 -85.1853 52° Northeast 480 552 36,000 120 Level Atlanta Center
11:35PM 33.0617 -85.0625 52° Northeast 475 547 36,300 480 Climbing Atlanta Center
11:36PM 33.1439 -84.9369 52° Northeast 469 540 37,000 300 Climbing Atlanta Center
11:37PM 33.2261 -84.8136 51° Northeast 474 545 37,000  Level Atlanta Center
11:38PM 33.3103 -84.6850 52° Northeast 479 551 37,000  Level Atlanta Center
11:39PM 33.3903 -84.5589 53° Northeast 485 558 37,000  Level Atlanta Center
11:40PM 33.4828 -84.4175 52° Northeast 485 558 37,000  Level Atlanta Center
11:41PM 33.5622 -84.2856 54° Northeast 485 558 37,000  Level Atlanta Center
11:42PM 33.6461 -84.1561 52° Northeast 485 558 37,000  Level Atlanta Center
11:43PM 33.7317 -84.0289 51° Northeast 485 558 37,000  Level Atlanta Center
11:44PM 33.8131 -83.8989 53° Northeast 485 558 37,000  Level Atlanta Center
11:45PM 33.8942 -83.7711 53° Northeast 480 552 37,000  Level Atlanta Center
11:46PM 33.9731 -83.6456 53° Northeast 480 552 37,000  Level Atlanta Center
11:47PM 34.0539 -83.5172 53° Northeast 480 552 37,000  Level Atlanta Center
11:48PM 34.1328 -83.3914 53° Northeast 480 552 37,000  Level Atlanta Center
11:49PM 34.2156 -83.2600 53° Northeast 485 558 37,000  Level Atlanta Center
11:50PM 34.2961 -83.1336 52° Northeast 479 551 37,000  Level Atlanta Center
11:51PM 34.3703 -83.0094 54° Northeast 474 545 37,000  Level Atlanta Center
11:52PM 34.4464 -82.8903 52° Northeast 455 524 37,000  Level Atlanta Center
11:53PM 34.5222 -82.7681 53° Northeast 449 517 37,000  Level Atlanta Center
11:54PM 34.5983 -82.6483 52° Northeast 454 522 37,000  Level Atlanta Center
11:55PM 34.6617 -82.5386 55° Northeast 448 516 37,000  Level Atlanta Center
11:56PM 34.7372 -82.4161 53° Northeast 443 510 37,000  Level Atlanta Center
11:57PM 34.8108 -82.2958 53° Northeast 443 510 37,000  Level Atlanta Center
11:58PM 34.8861 -82.1750 53° Northeast 443 510 37,000  Level Atlanta Center
11:59PM 34.9697 -82.0389 53° Northeast 443 510 37,000  Level Atlanta Center
12:00AM 35.0444 -81.9053 56° Northeast 470 541 37,000  Level Atlanta Center
12:01AM 35.1172 -81.7739 56° Northeast 470 541 37,000  Level Atlanta Center
12:02AM 35.1858 -81.6422 57° Northeast 465 535 37,000  Level Atlanta Center
12:03AM 35.2439 -81.5286 58° Northeast 452 520 37,000  Level Atlanta Center
12:04AM 35.3103 -81.4044 57° Northeast 441 507 37,000  Level Atlanta Center
12:05AM 35.3722 -81.2778 59° Northeast 436 502 37,000  Level Atlanta Center
12:06AM 35.4400 -81.1431 58° Northeast 448 516 37,000  Level Atlanta Center
12:07AM 35.5119 -81.0128 56° Northeast 462 532 37,000  Level Atlanta Center
12:08AM 35.5817 -80.8775 58° Northeast 462 532 37,000  Level Atlanta Center
12:09AM 35.7094 -80.6364 57° Northeast 466 536 37,000  Level Washington Center
12:10AM 35.7756 -80.5050 58° Northeast 459 528 37,000  Level Washington Center
12:11AM 35.8433 -80.3733 58° Northeast 451 519 37,000  Level Washington Center
12:12AM 35.8981 -80.2614 59° Northeast 437 503 37,000  Level Washington Center
12:13AM 35.9633 -80.1342 58° Northeast 431 496 37,000  Level Washington Center
12:14AM 36.0286 -80.0122 56° Northeast 425 489 37,000  Level Washington Center
12:15AM 36.1039 -79.8931 52° Northeast 425 489 37,000  Level Washington Center
12:16AM 36.1939 -79.7667 49° Northeast 431 496 37,000  Level Washington Center
12:17AM 36.2750 -79.6500 49° Northeast 442 509 37,000  Level Washington Center
12:18AM 36.3472 -79.5481 49° Northeast 442 509 37,000 -420 Level Washington Center
12:19AM 36.4372 -79.4156 50° Northeast 448 516 36,200 -1,260 Descending Washington Center
12:20AM 36.5114 -79.3108 49° Northeast 448 516 34,500 -1,560 Descending Washington Center
12:21AM 36.5944 -79.1931 49° Northeast 443 510 33,100 -1,560 Descending Washington Center
12:22AM 36.6814 -79.0675 49° Northeast 443 510 31,400 -1,560 Descending Washington Center
12:23AM 36.7619 -78.9572 48° Northeast 437 503 30,000 -1,380 Descending Washington Center
12:24AM 36.8544 -78.8572 41° Northeast 432 497 28,700 -1,380 Descending Washington Center
12:25AM 36.9553 -78.7525 40° Northeast 443 510 27,300 -1,440 Descending Washington Center
12:26AM 37.0494 -78.6547 40° Northeast 471 542 25,900 -1,200 Descending Washington Center
12:27AM 37.1525 -78.5469 40° Northeast 471 542 25,000 -900 Descending Washington Center
12:28AM 37.2531 -78.4439 39° Northeast 471 542 24,200 -960 Descending Washington Center
12:29AM 37.3619 -78.3303 40° Northeast 466 536 23,100 -1,020 Descending Washington Center
12:30AM 37.4603 -78.2264 40° Northeast 466 536 22,200 -960 Descending Washington Center
12:31AM 37.5564 -78.1225 41° Northeast 461 531 21,200 -960 Descending Washington Center
12:32AM 37.6544 -78.0156 41° Northeast 461 531 20,300 -960 Descending Washington Center
12:33AM 37.7483 -77.9133 41° Northeast 461 531 19,300 -960 Descending Washington Center
12:34AM 37.8442 -77.8111 40° Northeast 456 525 18,400 -1,320 Descending Washington Center
12:35AM 37.9356 -77.7139 40° Northeast 445 512 16,700 -2,220 Descending Washington Center
12:36AM 38.0269 -77.6136 41° Northeast 433 498 14,000 -2,580 Descending Washington Center
12:37AM 38.1053 -77.5367 38° Northeast 418 481 11,600 -2,040 Descending Washington Center
12:38AM 38.1839 -77.4489 41° Northeast 390 449 10,000 -900 Descending Washington Center
12:39AM 38.2639 -77.3978 27° Northeast 354 407 9,900 -540 Descending Washington Center
12:40AM 38.3458 -77.3575 21° North 330 380 9,000 -1,380 Descending Washington Center
12:41AM 38.4292 -77.3594 359° North 301 346 7,200 -1,620 Descending Washington Center
12:42AM 38.5125 -77.3642 357° North 295 339 5,800 -1,140 Descending Washington Center
12:43AM 38.5897 -77.3658 359° North 283 326 5,000 -960 Descending Washington Center
12:44AM 38.6333 -77.3667 359° North 291 335 4,400 -720 Descending Potomac TRACON
12:45AM 38.7167 -77.3667 360° North 293 337 4,000 -240 Descending Potomac TRACON
12:46AM 38.8000 -77.3500 North 294 338 4,000 -360 Level Potomac TRACON
12:48AM 38.9833 -77.3500 360° North 293 337 3,000 -420 Descending Potomac TRACON
12:49AM 39.0500 -77.3500 360° North 282 325 2,800 -540 Descending Potomac TRACON
12:50AM 39.1000 -77.4000 322° Northwest 222 255 2,000 -600 Descending Potomac TRACON
12:51AM 39.0667 -77.4333 218° Southwest 157 181 1,700 -240 Descending Potomac TRACON
12:52AM 39.0167 -77.4333 180° South 137 158 1,600 -120 Descending Potomac TRACON